Time;durP1;ratioP1;P1;durP2;ratioP2;P2;SDS_P1;SDS_P2;PMS_P1;PMS_P2;Temp;Humidity;BMP_temperature;BMP_pressure;BME280_temperature;BME280_humidity;BME280_pressure;Samples;Min_cycle;Max_cycle;Signal;HPM_P1;HPM_P2
2021/12/05 00:18:46;;;;;;;12.63;3.07;;;-6.20;99.90;;;;;;5035569;28;20462;-79
2021/12/05 00:23:57;;;;;;;5.80;2.27;;;-4.50;99.90;;;;;;5035466;28;20710;-74
2021/12/05 00:26:25;;;;;;;5.30;2.07;;;-6.10;99.90;;;;;;5035525;28;20429;-76
2021/12/05 00:40:08;;;;;;;5.10;2.80;;;-5.60;99.90;;;;;;5035646;28;20848;-80
2021/12/05 00:45:28;;;;;;;10.43;1.40;;;-6.30;99.90;;;;;;5035355;28;20400;-75
2021/12/05 01:04:15;;;;;;;6.37;2.77;;;-6.30;99.90;;;;;;5035162;28;20696;-75
2021/12/05 01:06:46;;;;;;;5.57;1.97;;;-6.20;99.90;;;;;;5035134;28;20441;-75
2021/12/05 01:09:51;;;;;;;10.20;2.33;;;-6.20;99.90;;;;;;5037818;28;20545;-77
2021/12/05 01:17:20;;;;;;;6.20;2.27;;;-3.50;99.90;;;;;;5038478;28;20483;-76
2021/12/05 01:19:48;;;;;;;9.43;2.83;;;-6.20;99.90;;;;;;5038514;28;20436;-77
2021/12/05 01:22:16;;;;;;;6.13;2.80;;;-6.00;99.90;;;;;;5037421;28;20463;-77
2021/12/05 01:33:06;;;;;;;4.90;2.50;;;-5.10;99.90;;;;;;5038443;28;20165;-76
2021/12/05 01:35:24;;;;;;;7.57;3.63;;;-5.30;99.90;;;;;;5041007;28;20500;-74
2021/12/05 01:38:05;;;;;;;12.07;5.87;;;-5.60;99.90;;;;;;5038129;28;20858;-75
2021/12/05 01:54:29;;;;;;;4.90;2.83;;;-3.50;99.90;;;;;;5075844;28;20419;-74
2021/12/05 02:15:59;;;;;;;23.00;3.73;;;-4.40;99.90;;;;;;5037450;28;20447;-76
2021/12/05 02:29:39;;;;;;;5.00;2.70;;;-6.40;99.90;;;;;;5037032;28;20452;-75
2021/12/05 02:40:23;;;;;;;8.27;2.80;;;-6.00;99.90;;;;;;5037010;28;20438;-75
2021/12/05 02:45:25;;;;;;;6.07;2.93;;;-6.30;99.90;;;;;;5037173;28;20421;-75
2021/12/05 02:47:53;;;;;;;8.10;4.47;;;-6.60;99.90;;;;;;5036724;28;20430;-76
2021/12/05 02:50:23;;;;;;;6.50;3.37;;;-6.40;99.90;;;;;;5036727;28;20740;-78
2021/12/05 02:52:50;;;;;;;6.23;3.10;;;-6.40;99.90;;;;;;5036848;28;20794;-77
2021/12/05 02:55:35;;;;;;;6.73;3.40;;;-6.50;99.90;;;;;;5036557;28;20468;-74
2021/12/05 02:58:03;;;;;;;8.40;3.80;;;-5.00;99.90;;;;;;5036719;28;20405;-75
2021/12/05 03:00:43;;;;;;;9.60;4.83;;;-6.10;99.90;;;;;;5036698;28;20402;-75
2021/12/05 03:03:23;;;;;;;7.30;4.30;;;-5.70;99.90;;;;;;5035695;28;20398;-74
2021/12/05 03:05:55;;;;;;;8.70;3.90;;;-6.10;99.90;;;;;;5036491;28;20841;-74
2021/12/05 03:08:22;;;;;;;8.90;3.63;;;-6.10;99.90;;;;;;5036537;28;20503;-74
2021/12/05 03:10:49;;;;;;;6.53;3.50;;;-5.70;99.90;;;;;;5036078;28;20394;-73
2021/12/05 03:13:15;;;;;;;8.40;3.43;;;-5.70;99.90;;;;;;5036508;28;20445;-74
2021/12/05 03:15:41;;;;;;;8.50;3.77;;;-5.00;99.90;;;;;;5036472;28;20398;-76
2021/12/05 03:18:07;;;;;;;5.63;2.37;;;-5.10;99.90;;;;;;5036298;28;21023;-78
2021/12/05 03:20:34;;;;;;;4.07;2.87;;;-5.40;99.90;;;;;;5035442;28;20577;-77
2021/12/05 03:23:00;;;;;;;7.40;3.83;;;-6.30;99.90;;;;;;5036241;28;20161;-73
2021/12/05 03:25:26;;;;;;;5.00;3.20;;;-6.50;99.90;;;;;;5036109;28;20920;-74
2021/12/05 03:27:53;;;;;;;6.17;3.60;;;-6.50;99.90;;;;;;5036036;28;20165;-77
2021/12/05 03:30:22;;;;;;;6.00;3.53;;;-6.90;99.90;;;;;;5035631;28;20250;-77
2021/12/05 03:32:50;;;;;;;4.73;2.77;;;-6.40;99.90;;;;;;5036118;28;20410;-74
2021/12/05 03:35:19;;;;;;;17.73;3.97;;;-5.10;99.90;;;;;;5036149;28;20394;-73
2021/12/05 03:37:47;;;;;;;8.03;4.03;;;-4.90;99.90;;;;;;5035889;28;20422;-72
2021/12/05 03:40:14;;;;;;;3.77;2.73;;;-6.60;99.90;;;;;;5035863;28;20408;-75
2021/12/05 03:42:40;;;;;;;7.10;3.10;;;-6.60;99.90;;;;;;5036003;28;20501;-72
2021/12/05 03:45:09;;;;;;;5.27;3.43;;;-6.50;99.90;;;;;;5034970;28;20437;-72
2021/12/05 03:47:37;;;;;;;3.90;3.07;;;-6.30;99.90;;;;;;5035522;28;20184;-72
2021/12/05 03:50:07;;;;;;;4.43;2.93;;;-5.90;99.90;;;;;;5035739;28;20473;-72
2021/12/05 03:52:33;;;;;;;7.60;3.20;;;-6.30;99.90;;;;;;5035876;28;20404;-71
2021/12/05 03:54:59;;;;;;;4.33;3.27;;;-6.50;99.90;;;;;;5035601;28;20712;-71
2021/12/05 03:57:25;;;;;;;7.37;3.30;;;-6.90;99.90;;;;;;5035669;28;20256;-72
2021/12/05 03:59:50;;;;;;;7.83;2.97;;;-7.00;99.90;;;;;;5035801;28;20505;-71
2021/12/05 04:02:16;;;;;;;4.80;2.93;;;-7.10;99.90;;;;;;5035676;28;20517;-73
2021/12/05 04:04:42;;;;;;;8.90;5.37;;;-7.00;99.90;;;;;;5035836;28;20493;-81
2021/12/05 04:07:08;;;;;;;11.37;4.47;;;-6.60;99.90;;;;;;5035770;28;20169;-83
2021/12/05 04:09:35;;;;;;;6.93;4.43;;;-6.70;99.90;;;;;;5035562;28;20201;-82
2021/12/05 04:12:03;;;;;;;5.07;3.23;;;-6.60;99.90;;;;;;5035687;28;20436;-83
2021/12/05 04:14:42;;;;;;;5.77;3.53;;;-6.70;99.90;;;;;;5035821;28;20723;-83
2021/12/05 04:17:11;;;;;;;4.53;4.00;;;-6.30;99.90;;;;;;5035658;28;20421;-83
2021/12/05 04:19:38;;;;;;;3.70;3.27;;;-6.60;99.90;;;;;;5034718;28;20885;-81
2021/12/05 04:22:06;;;;;;;5.37;3.47;;;-6.40;99.90;;;;;;5035842;28;20405;-83
2021/12/05 04:24:32;;;;;;;5.93;3.47;;;-6.40;99.90;;;;;;5034305;28;20414;-83
2021/12/05 04:26:58;;;;;;;9.83;3.80;;;-6.70;99.90;;;;;;5035671;28;20496;-82
2021/12/05 04:29:24;;;;;;;8.93;4.03;;;-6.60;99.90;;;;;;5034332;28;20484;-83
2021/12/05 04:31:50;;;;;;;5.23;4.23;;;-7.40;99.90;;;;;;5035639;28;20173;-82
2021/12/05 04:34:16;;;;;;;7.30;4.90;;;-7.20;99.90;;;;;;5035357;28;20623;-82
2021/12/05 04:36:44;;;;;;;6.00;3.60;;;-7.20;99.90;;;;;;5035500;28;20189;-80
2021/12/05 04:39:12;;;;;;;3.63;3.33;;;-6.80;99.90;;;;;;5035268;28;20402;-80
2021/12/05 04:41:42;;;;;;;7.40;3.70;;;-6.70;99.90;;;;;;5036509;28;20463;-77
2021/12/05 04:44:08;;;;;;;9.77;4.00;;;-6.70;99.90;;;;;;5039387;28;20408;-81
2021/12/05 04:46:35;;;;;;;4.67;3.57;;;-6.90;99.90;;;;;;5039115;28;20460;-77
2021/12/05 04:49:02;;;;;;;4.57;3.90;;;-6.70;99.90;;;;;;5039251;28;20495;-79
2021/12/05 04:51:33;;;;;;;8.43;4.80;;;-6.60;99.90;;;;;;5038781;28;20405;-79
2021/12/05 04:53:59;;;;;;;8.93;5.33;;;-5.90;99.90;;;;;;5039134;28;20433;-82
2021/12/05 04:56:25;;;;;;;10.23;5.47;;;-5.30;99.90;;;;;;5038969;28;20420;-78
2021/12/05 04:58:53;;;;;;;9.47;5.57;;;-6.10;99.90;;;;;;5037869;28;20418;-79
2021/12/05 05:01:20;;;;;;;7.50;4.97;;;-6.00;99.90;;;;;;5038810;28;20410;-78
2021/12/05 05:03:46;;;;;;;12.93;6.00;;;-6.50;99.90;;;;;;5038836;28;20402;-76
2021/12/05 05:06:15;;;;;;;6.03;5.20;;;-4.90;99.90;;;;;;5037575;28;20837;-76
2021/12/05 05:08:47;;;;;;;6.80;5.23;;;-5.00;99.90;;;;;;5037525;28;20972;-79
2021/12/05 05:11:15;;;;;;;8.37;3.97;;;-6.40;99.90;;;;;;5037746;28;20724;-80
2021/12/05 05:13:42;;;;;;;7.27;6.40;;;-6.00;99.90;;;;;;5038552;28;20414;-81
2021/12/05 05:16:09;;;;;;;5.30;4.80;;;-6.20;99.90;;;;;;5038697;28;20460;-81
2021/12/05 05:18:57;;;;;;;7.07;5.70;;;-6.20;99.90;;;;;;5038638;28;20421;-78
2021/12/05 05:29:38;;;;;;;6.73;4.47;;;-5.40;99.90;;;;;;5038340;28;20464;-81
2021/12/05 05:50:13;;;;;;;6.57;4.07;;;-5.70;99.90;;;;;;5037632;28;21019;-73
2021/12/05 05:52:39;;;;;;;4.07;3.63;;;-6.40;99.90;;;;;;5037844;28;20405;-72
2021/12/05 05:55:06;;;;;;;5.27;3.10;;;-6.50;99.90;;;;;;5037435;28;20472;-78
2021/12/05 05:57:38;;;;;;;6.87;3.13;;;-6.80;99.90;;;;;;5038026;28;20430;-79
2021/12/05 06:00:14;;;;;;;4.37;2.93;;;-6.60;99.90;;;;;;5037930;28;20430;-74
2021/12/05 06:05:27;;;;;;;3.40;3.10;;;-6.80;99.90;;;;;;5037767;28;20464;-72
2021/12/05 06:07:53;;;;;;;3.87;3.53;;;-6.60;99.90;;;;;;5037654;28;20693;-74
2021/12/05 06:10:24;;;;;;;4.10;3.80;;;-6.70;99.90;;;;;;5037555;28;20503;-75
2021/12/05 06:12:51;;;;;;;5.60;3.27;;;-6.90;99.90;;;;;;5037687;28;20161;-80
2021/12/05 06:15:19;;;;;;;5.70;3.40;;;-6.60;99.90;;;;;;5037733;28;20758;-79
2021/12/05 06:17:45;;;;;;;8.13;3.20;;;-7.10;99.90;;;;;;5037848;28;20418;-82
2021/12/05 06:20:15;;;;;;;4.27;3.67;;;-5.70;99.90;;;;;;5037662;28;20421;-84
2021/12/05 06:22:42;;;;;;;6.33;3.40;;;-6.60;99.90;;;;;;5037665;28;20402;-77
2021/12/05 06:25:12;;;;;;;5.27;3.40;;;-6.10;99.90;;;;;;5037698;28;20460;-78
2021/12/05 06:27:39;;;;;;;3.50;3.20;;;-4.80;99.90;;;;;;5036509;28;20417;-80
2021/12/05 06:30:14;;;;;;;4.50;3.17;;;-5.50;99.90;;;;;;5037249;28;20948;-78
2021/12/05 06:36:53;;;;;;;3.03;2.63;;;-5.40;99.90;;;;;;5037732;28;20402;-81
2021/12/05 06:46:11;;;;;;;5.40;3.90;;;-4.80;99.90;;;;;;5036950;28;20406;-73
2021/12/05 06:48:37;;;;;;;5.67;2.93;;;-5.90;99.90;;;;;;5036665;28;20480;-73
2021/12/05 06:51:04;;;;;;;3.20;2.97;;;-6.20;99.90;;;;;;5036748;28;20822;-83
2021/12/05 06:53:30;;;;;;;4.60;4.27;;;-6.10;99.90;;;;;;5036989;28;20402;-73
2021/12/05 06:55:56;;;;;;;5.50;4.57;;;-6.00;99.90;;;;;;5036725;28;20407;-79
2021/12/05 06:58:22;;;;;;;4.07;3.77;;;-5.70;99.90;;;;;;5036866;28;20394;-78
2021/12/05 07:00:48;;;;;;;8.40;5.10;;;-4.80;99.90;;;;;;5036562;28;20279;-82
2021/12/05 07:03:14;;;;;;;7.13;6.43;;;-6.00;99.90;;;;;;5035432;28;20169;-79
2021/12/05 07:05:45;;;;;;;7.20;4.57;;;-6.20;99.90;;;;;;5034795;28;20434;-80
2021/12/05 07:08:14;;;;;;;8.70;4.70;;;-6.70;99.90;;;;;;5035413;28;20402;-82
2021/12/05 07:16:03;;;;;;;8.67;5.10;;;-6.30;99.90;;;;;;5036541;28;20409;-80
2021/12/05 07:26:15;;;;;;;4.97;4.57;;;-6.50;99.90;;;;;;5036429;28;20460;-83
2021/12/05 07:40:26;;;;;;;4.23;3.93;;;-6.40;99.90;;;;;;5036265;28;20432;-79
2021/12/05 07:42:26;;;;;;;2.83;2.63;;;-4.60;99.90;;;;;;5038608;28;20444;-78
2021/12/05 07:44:54;;;;;;;4.23;2.97;;;-6.30;99.90;;;;;;5035818;28;20402;-82
2021/12/05 07:47:24;;;;;;;2.80;2.60;;;-5.00;99.90;;;;;;5035228;28;20448;-81
2021/12/05 07:49:52;;;;;;;4.13;3.57;;;-5.90;99.90;;;;;;5034530;28;20473;-75
2021/12/05 07:52:22;;;;;;;2.87;2.67;;;-7.10;99.90;;;;;;5035733;28;20705;-82
2021/12/05 07:54:55;;;;;;;3.53;3.30;;;-5.40;99.90;;;;;;5035767;28;20402;-82
2021/12/05 07:57:28;;;;;;;7.87;5.47;;;-6.70;99.90;;;;;;5035504;28;20402;-79
2021/12/05 08:00:07;;;;;;;3.20;2.97;;;-6.30;99.90;;;;;;5035230;28;20666;-80
2021/12/05 08:16:18;;;;;;;2.80;2.60;;;-6.10;99.90;;;;;;5035335;28;20445;-83
2021/12/05 08:18:44;;;;;;;2.97;2.77;;;-5.70;99.90;;;;;;5039525;28;20398;-77
2021/12/05 08:21:11;;;;;;;3.80;3.50;;;-6.00;99.90;;;;;;5039532;28;20756;-82
2021/12/05 08:23:38;;;;;;;3.90;3.20;;;-4.20;99.90;;;;;;5039629;28;20173;-82
2021/12/05 08:26:08;;;;;;;3.53;3.33;;;-5.30;99.90;;;;;;5039021;28;20393;-77
2021/12/05 08:34:24;;;;;;;4.07;3.10;;;-3.80;99.90;;;;;;5027753;28;20577;-77
2021/12/05 09:21:25;;;;;;;5.17;4.77;;;-5.90;99.90;;;;;;5028456;28;20410;-77
2021/12/05 09:29:40;;;;;;;5.27;4.77;;;-4.40;99.90;;;;;;5058139;28;20839;-73
2021/12/05 10:10:24;;;;;;;4.73;4.33;;;-6.90;99.90;;;;;;5023792;28;20446;-72
2021/12/05 10:13:15;;;;;;;5.90;4.47;;;-6.90;99.90;;;;;;5027865;28;20172;-74
2021/12/05 10:37:54;;;;;;;4.63;4.33;;;-5.90;99.90;;;;;;5024654;28;20425;-72
2021/12/05 10:40:39;;;;;;;4.30;4.00;;;-5.90;99.90;;;;;;5023831;28;20414;-76
2021/12/05 10:43:20;;;;;;;4.80;4.00;;;-6.00;99.90;;;;;;5019144;28;20411;-73
2021/12/05 10:46:03;;;;;;;8.80;5.50;;;-5.70;99.90;;;;;;5026978;28;20863;-71
2021/12/05 10:48:36;;;;;;;11.00;4.53;;;-3.70;99.90;;;;;;5024294;28;20445;-72
2021/12/05 10:51:08;;;;;;;3.80;3.50;;;-3.50;99.90;;;;;;5025257;28;20682;-72
2021/12/05 10:53:43;;;;;;;4.30;3.77;;;-5.90;99.90;;;;;;5020007;28;20415;-70
2021/12/05 10:56:26;;;;;;;4.43;3.70;;;-5.50;99.90;;;;;;5024810;28;20407;-75
2021/12/05 10:58:54;;;;;;;6.50;4.73;;;-6.00;99.90;;;;;;5019533;28;20403;-74
2021/12/05 11:01:46;;;;;;;4.33;4.00;;;-6.50;99.90;;;;;;5024653;28;20476;-73
2021/12/05 11:04:54;;;;;;;7.60;6.70;;;-5.90;99.90;;;;;;5024456;28;20940;-71
2021/12/05 11:07:23;;;;;;;5.90;4.50;;;-6.30;99.90;;;;;;5018139;28;20414;-72
2021/12/05 11:09:57;;;;;;;4.90;3.93;;;-6.40;99.90;;;;;;5023971;28;20452;-72
2021/12/05 11:12:24;;;;;;;4.73;4.23;;;-4.90;99.90;;;;;;5023915;28;20910;-72
2021/12/05 11:14:57;;;;;;;6.27;5.70;;;-6.60;99.90;;;;;;5022189;28;20740;-72
2021/12/05 11:17:25;;;;;;;9.73;8.23;;;-6.00;99.90;;;;;;5021834;28;20428;-73
2021/12/05 11:20:03;;;;;;;5.10;4.70;;;-5.90;99.90;;;;;;5024889;28;20891;-74
2021/12/05 11:22:41;;;;;;;6.00;4.63;;;-5.40;99.90;;;;;;5023947;28;20503;-72
2021/12/05 11:25:13;;;;;;;5.80;5.30;;;-5.90;99.90;;;;;;5020518;28;20831;-73
2021/12/05 11:27:45;;;;;;;7.07;5.37;;;-5.80;99.90;;;;;;5023826;28;20410;-73
2021/12/05 11:30:18;;;;;;;6.97;6.37;;;-4.90;99.90;;;;;;5024610;28;20443;-73
2021/12/05 11:32:52;;;;;;;5.73;5.23;;;-5.60;99.90;;;;;;5020579;28;20492;-73
2021/12/05 11:35:29;;;;;;;9.27;5.37;;;-5.80;99.90;;;;;;5026311;28;20387;-74
2021/12/05 11:38:09;;;;;;;6.63;5.97;;;-5.60;99.90;;;;;;5023420;28;20435;-75
2021/12/05 11:40:49;;;;;;;7.97;5.47;;;-5.50;99.90;;;;;;5027036;28;20900;-75
2021/12/05 11:43:26;;;;;;;6.37;5.77;;;-5.60;99.90;;;;;;5015429;28;20410;-72
2021/12/05 11:46:04;;;;;;;7.77;6.47;;;-5.60;99.90;;;;;;5022971;28;20781;-73
2021/12/05 11:48:48;;;;;;;8.13;5.93;;;-5.80;99.90;;;;;;5019823;28;20428;-75
2021/12/05 11:51:27;;;;;;;6.87;6.17;;;-5.20;99.90;;;;;;5020085;28;20499;-72
2021/12/05 11:54:22;;;;;;;9.67;7.23;;;-5.60;99.90;;;;;;5022293;28;20417;-75
2021/12/05 11:57:05;;;;;;;9.03;7.37;;;-5.60;99.90;;;;;;5028708;28;20512;-75
2021/12/05 11:59:36;;;;;;;7.83;6.57;;;-5.60;99.90;;;;;;5020211;28;20397;-75
2021/12/05 12:02:19;;;;;;;11.80;7.90;;;-5.60;99.90;;;;;;5032453;28;20435;-76
2021/12/05 12:04:52;;;;;;;12.43;9.33;;;-5.80;99.90;;;;;;5033978;28;20424;-75
2021/12/05 12:07:30;;;;;;;12.17;7.77;;;-5.70;99.90;;;;;;5034759;28;20848;-76
2021/12/05 12:10:19;;;;;;;8.80;7.20;;;-6.00;99.90;;;;;;5035093;28;20490;-74
2021/12/05 12:12:58;;;;;;;9.87;7.00;;;-5.90;99.90;;;;;;5033856;28;20418;-74
2021/12/05 12:15:26;;;;;;;9.10;7.77;;;-5.90;99.90;;;;;;5035138;28;20711;-74
2021/12/05 12:17:57;;;;;;;9.77;8.70;;;-3.00;99.90;;;;;;5034905;28;20412;-76
2021/12/05 12:20:26;;;;;;;11.63;8.00;;;-5.50;99.90;;;;;;5035283;28;20413;-76
2021/12/05 12:22:55;;;;;;;11.33;8.10;;;-2.90;99.90;;;;;;5035074;28;20473;-81
2021/12/05 12:25:26;;;;;;;12.70;9.43;;;-5.40;99.90;;;;;;5036214;28;20447;-73
2021/12/05 12:27:52;;;;;;;11.87;9.17;;;-5.40;99.90;;;;;;5038651;28;20439;-76
2021/12/05 12:30:26;;;;;;;9.90;8.67;;;-5.50;99.90;;;;;;5035437;28;20926;-74
2021/12/05 12:33:06;;;;;;;12.77;9.43;;;-5.00;99.90;;;;;;5035433;28;20217;-73
2021/12/05 12:35:33;;;;;;;11.77;9.27;;;-4.80;99.90;;;;;;5035269;28;20400;-73
2021/12/05 12:38:10;;;;;;;11.40;8.67;;;-6.00;99.90;;;;;;5035223;28;20425;-79
2021/12/05 12:40:50;;;;;;;10.67;9.53;;;-5.00;99.90;;;;;;5035431;28;20435;-77
2021/12/05 12:43:39;;;;;;;9.97;7.70;;;-4.50;99.90;;;;;;5035179;28;20701;-75
2021/12/05 12:46:14;;;;;;;8.83;6.97;;;-6.10;99.90;;;;;;5035089;28;20462;-73
2021/12/05 12:48:43;;;;;;;10.53;7.23;;;-5.60;99.90;;;;;;5035089;28;22369;-74
2021/12/05 12:51:35;;;;;;;7.63;6.90;;;-6.10;99.90;;;;;;5033948;28;20470;-72
2021/12/05 12:54:06;;;;;;;12.00;8.87;;;-5.70;99.90;;;;;;5035047;28;20763;-74
2021/12/05 12:56:33;;;;;;;9.87;7.07;;;-5.40;99.90;;;;;;5035087;28;20416;-74
2021/12/05 12:59:07;;;;;;;9.17;8.07;;;-5.60;99.90;;;;;;5035038;28;20405;-74
2021/12/05 13:04:36;;;;;;;8.63;7.73;;;-5.30;99.90;;;;;;5038195;28;20411;-72
2021/12/05 13:12:51;;;;;;;10.63;7.77;;;-5.40;99.90;;;;;;5042434;28;20885;-75
2021/12/05 13:15:32;;;;;;;7.80;6.80;;;-4.90;99.90;;;;;;5029027;28;20409;-75
2021/12/05 13:18:05;;;;;;;12.30;7.87;;;-6.00;99.90;;;;;;5024600;28;20425;-73
2021/12/05 13:20:54;;;;;;;8.33;7.10;;;-4.40;99.90;;;;;;5018488;28;20416;-75
2021/12/05 13:23:40;;;;;;;7.37;6.43;;;-4.00;99.90;;;;;;5025837;28;20420;-74
2021/12/05 13:26:12;;;;;;;8.30;7.10;;;-5.70;99.90;;;;;;5038247;28;20405;-72
2021/12/05 13:28:52;;;;;;;13.07;7.40;;;-5.70;99.90;;;;;;5038267;28;20404;-73
2021/12/05 13:31:31;;;;;;;10.37;8.47;;;-5.60;99.90;;;;;;5038846;28;20881;-71
2021/12/05 13:34:24;;;;;;;8.57;6.27;;;-5.70;99.90;;;;;;5037997;28;20401;-73
2021/12/05 13:36:56;;;;;;;8.20;7.47;;;-6.20;99.90;;;;;;5037092;28;20943;-74
2021/12/05 13:39:44;;;;;;;9.30;8.20;;;-4.50;99.90;;;;;;5030162;28;20448;-72
2021/12/05 13:42:16;;;;;;;11.40;9.53;;;-6.20;99.90;;;;;;5025568;28;20927;-73
2021/12/05 13:45:01;;;;;;;9.03;8.20;;;-5.80;99.90;;;;;;5027732;28;20413;-75
2021/12/05 13:47:42;;;;;;;9.83;7.47;;;-5.80;99.90;;;;;;5025731;28;20441;-73
2021/12/05 13:50:18;;;;;;;8.83;7.57;;;-6.10;99.90;;;;;;5019831;28;20523;-71
2021/12/05 13:53:02;;;;;;;8.97;7.47;;;-5.60;99.90;;;;;;5024785;28;20406;-75
2021/12/05 13:55:47;;;;;;;7.27;6.57;;;-5.40;99.90;;;;;;5023912;28;20420;-74
2021/12/05 13:58:28;;;;;;;7.33;6.53;;;-4.20;99.90;;;;;;5017762;28;20407;-74
2021/12/05 14:01:01;;;;;;;13.20;7.50;;;-3.50;99.90;;;;;;5026336;28;20407;-75
2021/12/05 14:03:41;;;;;;;10.73;7.97;;;-5.60;99.90;;;;;;5026411;28;20848;-75
2021/12/05 14:06:47;;;;;;;13.20;8.13;;;-5.80;99.90;;;;;;5022640;28;20412;-75
2021/12/05 14:09:28;;;;;;;9.30;8.40;;;-5.50;99.90;;;;;;5026990;28;20945;-75
2021/12/05 14:12:07;;;;;;;10.30;7.47;;;-5.90;99.90;;;;;;5027539;28;20751;-74
2021/12/05 14:14:49;;;;;;;11.77;8.07;;;-5.30;99.90;;;;;;5027003;28;20418;-74
2021/12/05 14:17:20;;;;;;;12.40;9.83;;;-5.30;99.90;;;;;;5019306;28;20516;-75
2021/12/05 14:19:49;;;;;;;12.00;8.50;;;-5.10;99.90;;;;;;5027029;28;20422;-75
2021/12/05 14:22:18;;;;;;;8.63;7.20;;;-3.40;99.90;;;;;;5026876;28;20176;-75
2021/12/05 14:24:48;;;;;;;10.40;7.23;;;-5.60;99.90;;;;;;5025255;28;20444;-76
2021/12/05 14:27:17;;;;;;;9.77;7.90;;;-5.30;99.90;;;;;;5041907;28;20416;-76
2021/12/05 14:29:45;;;;;;;9.67;8.23;;;-4.60;99.90;;;;;;5055750;28;20459;-75
2021/12/05 14:32:22;;;;;;;10.43;7.53;;;-3.80;99.90;;;;;;5056699;28;20407;-75
2021/12/05 14:34:51;;;;;;;9.37;7.57;;;-5.70;99.90;;;;;;5057071;28;20487;-75
2021/12/05 14:37:20;;;;;;;8.07;6.43;;;-5.70;99.90;;;;;;5056536;28;20421;-75
2021/12/05 14:39:51;;;;;;;8.30;7.50;;;-5.80;99.90;;;;;;5030259;28;20433;-74
2021/12/05 14:42:21;;;;;;;9.60;7.80;;;-4.40;99.90;;;;;;5017112;28;20401;-75
2021/12/05 14:44:53;;;;;;;9.77;8.90;;;-5.80;99.90;;;;;;5017385;28;20441;-75
2021/12/05 14:47:21;;;;;;;7.63;6.83;;;-4.10;99.90;;;;;;5015383;28;20727;-76
2021/12/05 14:49:51;;;;;;;9.57;8.03;;;-4.70;99.90;;;;;;5016917;28;20454;-76
2021/12/05 14:52:21;;;;;;;12.27;8.93;;;-5.10;99.90;;;;;;5016794;28;20484;-75
2021/12/05 14:54:48;;;;;;;9.07;8.17;;;-3.70;99.90;;;;;;5017056;28;20500;-75
2021/12/05 14:57:22;;;;;;;10.80;8.43;;;-4.90;99.90;;;;;;5029463;28;20426;-76
2021/12/05 14:59:51;;;;;;;9.70;8.10;;;-5.40;99.90;;;;;;5036544;28;20432;-75
2021/12/05 15:02:19;;;;;;;10.03;9.03;;;-5.40;99.90;;;;;;5036012;28;20827;-75
2021/12/05 15:04:50;;;;;;;10.40;9.30;;;-4.30;99.90;;;;;;5035448;28;20418;-75
2021/12/05 15:07:21;;;;;;;9.73;7.97;;;-3.60;99.90;;;;;;5036369;28;20431;-75
2021/12/05 15:09:50;;;;;;;8.77;7.93;;;-6.20;99.90;;;;;;5036373;28;20455;-76
2021/12/05 15:12:21;;;;;;;8.10;7.30;;;-3.80;99.90;;;;;;5035203;28;20471;-76
2021/12/05 15:14:50;;;;;;;8.67;7.77;;;-5.10;99.90;;;;;;5035011;28;20420;-77
2021/12/05 15:17:26;;;;;;;9.23;7.57;;;-5.40;99.90;;;;;;5036073;28;20412;-75
2021/12/05 15:20:19;;;;;;;8.47;7.43;;;-5.20;99.90;;;;;;5035239;28;20410;-74
2021/12/05 15:22:54;;;;;;;10.60;8.13;;;-5.80;99.90;;;;;;5037865;28;20512;-75
2021/12/05 15:25:27;;;;;;;10.57;8.33;;;-4.70;99.90;;;;;;5035038;28;20404;-76
2021/12/05 15:27:54;;;;;;;11.53;9.87;;;-2.80;99.90;;;;;;5035319;28;20417;-76
2021/12/05 15:30:28;;;;;;;17.07;10.60;;;-3.70;99.90;;;;;;5034584;28;20478;-76
2021/12/05 15:33:01;;;;;;;11.23;9.23;;;-5.50;99.90;;;;;;5030072;28;20825;-76
2021/12/05 15:35:28;;;;;;;15.10;10.40;;;-3.70;99.90;;;;;;5016394;28;20864;-76
2021/12/05 15:38:00;;;;;;;13.27;9.47;;;-5.40;99.90;;;;;;5016034;28;20515;-76
2021/12/05 15:40:36;;;;;;;15.50;11.83;;;-5.10;99.90;;;;;;5016859;28;20917;-76
2021/12/05 15:43:11;;;;;;;15.67;11.77;;;-5.00;99.90;;;;;;5043540;28;20845;-75
2021/12/05 15:45:39;;;;;;;17.43;12.50;;;-4.90;99.90;;;;;;5035610;28;20471;-75
2021/12/05 15:48:05;;;;;;;15.50;11.13;;;-4.00;99.90;;;;;;5048984;28;20439;-76
2021/12/05 15:50:33;;;;;;;14.80;10.40;;;-3.70;99.90;;;;;;5055599;28;20471;-75
2021/12/05 15:53:05;;;;;;;13.97;9.73;;;-4.80;99.90;;;;;;5055846;28;20411;-76
2021/12/05 15:55:43;;;;;;;12.00;10.03;;;-5.00;99.90;;;;;;5054591;28;20481;-76
2021/12/05 15:58:19;;;;;;;11.17;9.93;;;-4.70;99.90;;;;;;5054577;28;20418;-75
2021/12/05 16:00:50;;;;;;;14.27;10.40;;;-5.10;99.90;;;;;;5038238;28;20421;-75
2021/12/05 16:03:25;;;;;;;17.13;10.47;;;-4.10;99.90;;;;;;5035212;28;20408;-75
2021/12/05 16:05:59;;;;;;;16.20;11.90;;;-5.20;99.90;;;;;;5035487;28;20411;-76
2021/12/05 16:08:29;;;;;;;16.30;11.53;;;-5.20;99.90;;;;;;5034614;28;20508;-76
2021/12/05 16:10:58;;;;;;;16.23;12.97;;;-5.20;99.90;;;;;;5035759;28;20708;-75
2021/12/05 16:13:38;;;;;;;13.27;11.83;;;-3.20;99.90;;;;;;5034137;28;20520;-75
2021/12/05 16:16:15;;;;;;;14.87;12.27;;;-5.00;99.90;;;;;;5035595;28;20415;-76
2021/12/05 16:18:45;;;;;;;14.33;12.73;;;-4.50;99.90;;;;;;5034248;28;20936;-78
2021/12/05 16:21:37;;;;;;;13.97;12.07;;;-3.20;99.90;;;;;;5035702;28;20394;-76
2021/12/05 16:24:10;;;;;;;17.90;13.30;;;-4.80;99.90;;;;;;5034069;28;20473;-75
2021/12/05 16:26:37;;;;;;;20.53;13.63;;;-4.80;99.90;;;;;;5035230;28;20425;-76
2021/12/05 16:29:24;;;;;;;20.43;14.93;;;-3.60;99.90;;;;;;5034856;28;20460;-78
2021/12/05 16:31:57;;;;;;;19.50;15.77;;;-3.40;99.90;;;;;;5035260;28;20415;-76
2021/12/05 16:34:29;;;;;;;22.03;15.73;;;-4.30;99.90;;;;;;5030802;28;20785;-76
2021/12/05 16:36:59;;;;;;;15.13;13.50;;;-4.20;99.90;;;;;;5015696;28;20447;-74
2021/12/05 16:39:36;;;;;;;18.80;14.20;;;-4.50;99.90;;;;;;5018226;28;20421;-76
2021/12/05 16:42:08;;;;;;;22.70;14.57;;;-4.40;99.90;;;;;;5019456;28;20422;-79
2021/12/05 16:44:37;;;;;;;17.63;14.20;;;-4.70;99.90;;;;;;5019367;28;20469;-75
2021/12/05 16:47:08;;;;;;;17.77;13.80;;;-2.60;99.90;;;;;;5019255;28;20514;-79
2021/12/05 16:49:36;;;;;;;20.83;16.60;;;-4.60;99.90;;;;;;5019170;28;20507;-78
2021/12/05 16:52:16;;;;;;;23.07;16.17;;;-2.30;99.90;;;;;;5040397;28;20460;-76
2021/12/05 16:54:51;;;;;;;20.63;16.53;;;-4.10;99.90;;;;;;5040064;28;20470;-79
2021/12/05 16:57:24;;;;;;;19.83;15.33;;;-2.00;99.90;;;;;;5038892;28;20415;-75
2021/12/05 16:59:55;;;;;;;24.73;16.33;;;-4.00;99.90;;;;;;5038977;28;20411;-76
2021/12/05 17:02:28;;;;;;;19.67;15.80;;;-3.70;99.90;;;;;;5038765;28;20447;-76
2021/12/05 17:05:22;;;;;;;22.20;17.10;;;-3.70;99.90;;;;;;5030066;28;20430;-77
2021/12/05 17:07:55;;;;;;;18.13;15.97;;;-4.10;99.90;;;;;;5025182;28;20460;-75
2021/12/05 17:10:21;;;;;;;19.07;14.20;;;-4.40;99.90;;;;;;5038513;28;20495;-76
2021/12/05 17:12:54;;;;;;;20.37;16.90;;;-3.10;99.90;;;;;;5033209;28;20429;-78
2021/12/05 17:15:29;;;;;;;18.80;15.80;;;-4.10;99.90;;;;;;5030087;28;20188;-76
2021/12/05 17:18:02;;;;;;;18.90;14.40;;;-4.00;99.90;;;;;;5028328;28;20884;-76
2021/12/05 17:20:35;;;;;;;22.30;17.83;;;-4.00;99.90;;;;;;5022421;28;20808;-76
2021/12/05 17:23:06;;;;;;;21.70;17.00;;;-3.60;99.90;;;;;;5023537;28;20531;-76
2021/12/05 17:25:37;;;;;;;18.07;16.27;;;-3.90;99.90;;;;;;5035672;28;20419;-74
2021/12/05 17:28:07;;;;;;;23.17;16.07;;;-4.00;99.90;;;;;;5018480;28;20398;-75
2021/12/05 17:30:36;;;;;;;26.37;17.40;;;-4.10;99.90;;;;;;5026442;28;20453;-76
2021/12/05 17:33:03;;;;;;;25.37;17.80;;;-4.20;99.90;;;;;;5031091;28;20397;-75
2021/12/05 17:35:31;;;;;;;25.73;20.03;;;-1.70;99.90;;;;;;5018294;28;20401;-77
2021/12/05 17:37:57;;;;;;;31.17;22.53;;;-4.30;99.90;;;;;;5017207;28;20444;-76
2021/12/05 17:40:26;;;;;;;25.97;20.20;;;-3.60;99.90;;;;;;5036770;28;20493;-76
2021/12/05 17:42:52;;;;;;;22.27;16.47;;;-3.70;99.90;;;;;;5037252;28;20479;-75
2021/12/05 17:45:18;;;;;;;20.40;15.73;;;-3.20;99.90;;;;;;5038082;28;20488;-79
2021/12/05 17:47:44;;;;;;;23.00;17.07;;;-4.40;99.90;;;;;;5036655;28;20437;-77
2021/12/05 17:50:20;;;;;;;23.10;16.80;;;-3.70;99.90;;;;;;5036830;28;20436;-76
2021/12/05 17:52:48;;;;;;;20.87;14.87;;;-4.40;99.90;;;;;;5037909;28;20400;-78
2021/12/05 17:55:24;;;;;;;20.53;14.10;;;-5.00;99.90;;;;;;5036927;28;20404;-75
2021/12/05 17:57:57;;;;;;;18.20;15.03;;;-4.40;99.90;;;;;;5038128;28;20415;-76
2021/12/05 18:02:57;;;;;;;21.70;17.13;;;-4.30;99.90;;;;;;5042104;28;20412;-77
2021/12/05 18:05:30;;;;;;;19.43;15.83;;;-2.40;99.90;;;;;;5046279;28;20425;-76
2021/12/05 18:07:59;;;;;;;22.73;17.77;;;-4.20;99.90;;;;;;5037576;28;20492;-78
2021/12/05 18:10:28;;;;;;;24.17;17.97;;;-2.30;99.90;;;;;;5037130;28;20453;-75
2021/12/05 18:12:58;;;;;;;27.23;18.50;;;-4.90;99.90;;;;;;5037016;28;20835;-76
2021/12/05 18:15:28;;;;;;;22.73;19.17;;;-5.00;99.90;;;;;;5037282;28;20494;-77
2021/12/05 18:17:57;;;;;;;24.17;17.40;;;-5.70;99.90;;;;;;5037211;28;20421;-77
2021/12/05 18:20:26;;;;;;;24.53;17.73;;;-2.90;99.90;;;;;;5028885;28;20464;-77
2021/12/05 18:22:57;;;;;;;21.27;15.73;;;-4.70;99.90;;;;;;5023386;28;20842;-74
2021/12/05 18:25:23;;;;;;;26.67;21.57;;;-4.20;99.90;;;;;;5024650;28;20415;-74
2021/12/05 18:27:50;;;;;;;23.73;17.80;;;-5.40;99.90;;;;;;5024540;28;20448;-75
2021/12/05 18:30:21;;;;;;;17.63;15.73;;;-5.00;99.90;;;;;;5023915;28;20466;-75